createdAt,value
2017-11-13T00:02:18.673Z,7.63
2017-11-13T00:04:46.952Z,6.87
2017-11-13T00:07:15.327Z,6.50
2017-11-13T00:09:43.593Z,6.53
2017-11-13T00:12:12.296Z,6.17
2017-11-13T00:14:40.600Z,6.00
2017-11-13T00:17:10.416Z,6.07
2017-11-13T00:19:38.668Z,5.90
2017-11-13T00:22:06.954Z,4.63
2017-11-13T00:24:35.223Z,4.27
2017-11-13T00:27:03.467Z,3.80
2017-11-13T00:29:31.753Z,4.47
2017-11-13T00:32:00.006Z,3.67
2017-11-13T00:34:29.030Z,4.23
2017-11-13T00:36:57.326Z,3.20
2017-11-13T00:39:25.634Z,3.53
2017-11-13T00:41:54.777Z,3.10
2017-11-13T00:44:23.049Z,3.00
2017-11-13T00:46:51.302Z,3.50
2017-11-13T00:49:20.521Z,3.10
2017-11-13T00:51:49.585Z,3.20
2017-11-13T00:54:17.840Z,3.30
2017-11-13T00:56:46.092Z,3.57
2017-11-13T00:59:14.582Z,3.20
2017-11-13T01:01:42.906Z,2.77
2017-11-13T01:04:11.186Z,2.63
2017-11-13T01:06:39.560Z,2.83
2017-11-13T01:09:07.836Z,3.10
2017-11-13T01:11:36.089Z,2.70
2017-11-13T01:14:04.455Z,2.90
2017-11-13T01:16:32.868Z,2.57
2017-11-13T01:19:01.094Z,2.13
2017-11-13T01:21:29.390Z,2.10
2017-11-13T01:23:58.615Z,2.50
2017-11-13T01:26:27.815Z,2.73
2017-11-13T01:28:57.118Z,2.93
2017-11-13T01:31:26.218Z,2.50
2017-11-13T01:33:55.310Z,2.43
2017-11-13T01:36:23.551Z,2.37
2017-11-13T01:38:52.300Z,3.07
2017-11-13T01:41:21.333Z,3.20
2017-11-13T01:43:49.648Z,3.17
2017-11-13T01:46:17.971Z,3.00
2017-11-13T01:48:47.033Z,3.43
2017-11-13T01:51:16.208Z,3.17
2017-11-13T01:53:44.474Z,3.90
2017-11-13T01:56:12.879Z,4.23
2017-11-13T01:58:41.114Z,2.93
2017-11-13T02:01:09.543Z,2.60
2017-11-13T02:03:38.567Z,3.50
2017-11-13T02:06:06.899Z,2.90
2017-11-13T02:08:35.962Z,2.90
2017-11-13T02:11:04.366Z,2.87
2017-11-13T02:13:32.635Z,2.60
2017-11-13T02:16:00.911Z,1.90
2017-11-13T02:18:29.166Z,2.30
2017-11-13T02:20:58.258Z,2.33
2017-11-13T02:23:26.539Z,2.20
2017-11-13T02:25:54.883Z,2.90
2017-11-13T02:28:23.178Z,2.50
2017-11-13T02:30:51.446Z,2.30
2017-11-13T02:33:19.726Z,2.53
2017-11-13T02:35:48.026Z,2.17
2017-11-13T02:38:16.290Z,2.60
2017-11-13T02:40:44.547Z,2.63
2017-11-13T02:43:12.843Z,3.10
2017-11-13T02:45:41.105Z,2.40
2017-11-13T02:48:09.373Z,3.03
2017-11-13T02:50:37.675Z,2.77
2017-11-13T02:53:05.946Z,2.87
2017-11-13T02:55:34.243Z,2.60
2017-11-13T02:58:02.538Z,2.67
2017-11-13T03:00:31.567Z,2.17
2017-11-13T03:02:59.901Z,2.83
2017-11-13T03:05:28.166Z,2.90
2017-11-13T03:07:56.630Z,2.40
2017-11-13T03:10:24.897Z,2.40
2017-11-13T03:12:53.139Z,2.40
2017-11-13T03:15:21.417Z,2.83
2017-11-13T03:17:49.735Z,2.63
2017-11-13T03:20:18.000Z,2.73
2017-11-13T03:22:46.271Z,2.53
2017-11-13T03:25:14.578Z,3.00
2017-11-13T03:27:42.906Z,2.40
2017-11-13T03:30:11.158Z,2.63
2017-11-13T03:32:39.396Z,2.67
2017-11-13T03:35:07.659Z,2.03
2017-11-13T03:37:36.796Z,1.80
2017-11-13T03:40:05.051Z,2.27
2017-11-13T03:42:34.143Z,2.10
2017-11-13T03:45:02.435Z,1.70
2017-11-13T03:47:30.743Z,1.90
2017-11-13T03:49:59.041Z,2.00
2017-11-13T03:52:27.320Z,1.70
2017-11-13T03:54:55.554Z,1.73
2017-11-13T03:57:24.709Z,2.70
2017-11-13T03:59:52.999Z,2.03
2017-11-13T04:02:21.227Z,1.60
2017-11-13T04:04:49.540Z,2.13
2017-11-13T04:07:17.786Z,1.87
2017-11-13T04:09:46.051Z,1.30
2017-11-13T04:12:14.350Z,1.53
2017-11-13T04:14:42.615Z,1.50
2017-11-13T04:17:11.097Z,1.73
2017-11-13T04:19:39.502Z,1.47
2017-11-13T04:22:07.782Z,1.50
2017-11-13T04:24:36.085Z,1.73
2017-11-13T04:27:04.341Z,1.90
2017-11-13T04:29:33.384Z,1.50
2017-11-13T04:32:02.426Z,1.50
2017-11-13T04:34:30.714Z,1.00
2017-11-13T04:36:59.018Z,1.17
2017-11-13T04:39:27.270Z,1.27
2017-11-13T04:41:56.277Z,1.20
2017-11-13T04:44:25.583Z,1.10
2017-11-13T04:46:53.817Z,1.10
2017-11-13T04:49:22.143Z,1.00
2017-11-13T04:51:50.398Z,1.00
2017-11-13T04:54:18.673Z,0.70
2017-11-13T04:56:47.703Z,1.10
2017-11-13T04:59:15.957Z,1.53
2017-11-13T05:01:44.234Z,2.00
2017-11-13T05:04:13.365Z,1.27
2017-11-13T05:06:41.623Z,1.40
2017-11-13T05:09:09.925Z,2.23
2017-11-13T05:11:38.178Z,1.27
2017-11-13T05:14:06.459Z,1.23
2017-11-13T05:16:35.793Z,1.43
2017-11-13T05:19:04.632Z,1.90
2017-11-13T05:21:33.020Z,2.10
2017-11-13T05:24:01.302Z,2.40
2017-11-13T05:26:30.478Z,1.97
2017-11-13T05:28:59.690Z,1.63
2017-11-13T05:31:28.702Z,1.30
2017-11-13T05:33:56.933Z,2.07
2017-11-13T05:36:25.226Z,1.70
2017-11-13T05:38:53.486Z,1.80
2017-11-13T05:41:21.757Z,3.67
2017-11-13T05:43:50.051Z,1.60
2017-11-13T05:46:18.296Z,1.40
2017-11-13T05:48:47.431Z,1.40
2017-11-13T05:51:15.766Z,1.80
2017-11-13T05:53:44.015Z,1.97
2017-11-13T05:56:12.275Z,1.60
2017-11-13T05:58:41.310Z,1.93
2017-11-13T06:01:09.927Z,1.60
2017-11-13T06:03:38.416Z,2.60
2017-11-13T06:06:07.447Z,1.80
2017-11-13T06:08:36.562Z,2.30
2017-11-13T06:11:05.691Z,1.60
2017-11-13T06:13:33.930Z,2.00
2017-11-13T06:16:02.238Z,2.30
2017-11-13T06:18:30.539Z,2.60
2017-11-13T06:20:58.783Z,1.70
2017-11-13T06:23:27.066Z,1.87
2017-11-13T06:25:55.315Z,1.60
2017-11-13T06:28:23.612Z,1.87
2017-11-13T06:30:51.875Z,1.70
2017-11-13T06:33:20.119Z,2.03
2017-11-13T06:35:48.405Z,2.03
2017-11-13T06:38:16.659Z,4.33
2017-11-13T06:40:45.667Z,3.20
2017-11-13T06:43:13.938Z,2.13
2017-11-13T06:45:42.236Z,3.10
2017-11-13T06:48:10.719Z,2.53
2017-11-13T06:50:39.005Z,2.60
2017-11-13T06:53:07.280Z,2.83
2017-11-13T06:55:35.557Z,2.30
2017-11-13T06:58:03.823Z,2.37
2017-11-13T07:00:32.068Z,1.90
2017-11-13T07:03:01.299Z,2.37
2017-11-13T07:05:29.542Z,6.67
2017-11-13T07:07:57.793Z,3.70
2017-11-13T07:10:26.580Z,2.83
2017-11-13T07:12:54.833Z,2.70
2017-11-13T07:15:23.117Z,3.00
2017-11-13T07:17:51.357Z,1.73
2017-11-13T07:20:19.639Z,2.10
2017-11-13T07:22:47.891Z,2.63
2017-11-13T07:25:16.170Z,2.80
2017-11-13T07:27:45.193Z,2.53
2017-11-13T07:30:13.481Z,3.07
2017-11-13T07:32:41.757Z,2.80
2017-11-13T07:35:10.997Z,2.47
2017-11-13T07:37:40.410Z,2.30
2017-11-13T07:40:09.449Z,2.40
2017-11-13T07:42:38.394Z,2.43
2017-11-13T07:45:06.656Z,2.70
2017-11-13T07:47:35.688Z,2.60
2017-11-13T07:50:04.121Z,2.23
2017-11-13T07:52:35.667Z,3.80
2017-11-13T07:55:03.931Z,2.80
2017-11-13T07:57:32.354Z,2.80
2017-11-13T08:00:02.830Z,3.07
2017-11-13T08:02:32.346Z,2.50
2017-11-13T08:05:00.746Z,3.70
2017-11-13T08:07:30.247Z,3.10
2017-11-13T08:09:59.457Z,2.57
2017-11-13T08:12:28.177Z,3.37
2017-11-13T08:14:58.422Z,2.30
2017-11-13T08:17:26.810Z,2.90
2017-11-13T08:20:00.792Z,3.37
2017-11-13T08:22:29.993Z,2.37
2017-11-13T08:25:00.782Z,2.87
2017-11-13T08:27:32.312Z,3.37
2017-11-13T08:30:01.059Z,2.63
2017-11-13T08:32:29.759Z,3.63
2017-11-13T08:34:58.104Z,3.47
2017-11-13T08:37:28.265Z,2.90
2017-11-13T08:40:01.891Z,4.50
2017-11-13T08:42:30.633Z,3.40
2017-11-13T08:44:59.236Z,3.20
2017-11-13T08:47:27.599Z,3.40
2017-11-13T08:49:55.862Z,2.87
2017-11-13T08:52:25.936Z,2.80
2017-11-13T08:54:54.209Z,3.57
2017-11-13T08:57:22.779Z,3.80
2017-11-13T08:59:51.019Z,2.80
2017-11-13T09:02:19.258Z,3.63
2017-11-13T09:04:47.741Z,4.20
2017-11-13T09:07:15.967Z,3.77
2017-11-13T09:09:44.247Z,4.00
2017-11-13T09:12:12.480Z,3.87
2017-11-13T09:14:41.647Z,3.23
2017-11-13T09:17:09.920Z,3.50
2017-11-13T09:19:38.179Z,3.53
2017-11-13T09:22:06.427Z,3.03
2017-11-13T09:24:34.697Z,3.30
2017-11-13T09:27:02.950Z,4.53
2017-11-13T09:29:31.205Z,3.83
2017-11-13T09:31:59.494Z,3.63
2017-11-13T09:34:27.738Z,3.33
2017-11-13T09:36:55.974Z,3.13
2017-11-13T09:39:25.027Z,3.90
2017-11-13T09:41:53.391Z,2.87
2017-11-13T09:44:21.732Z,3.23
2017-11-13T09:46:50.089Z,2.47
2017-11-13T09:49:18.386Z,2.77
2017-11-13T09:51:47.547Z,4.30
2017-11-13T09:54:15.874Z,3.80
2017-11-13T09:56:44.217Z,3.87
2017-11-13T09:59:12.613Z,2.93
2017-11-13T10:01:41.076Z,3.30
2017-11-13T10:04:09.387Z,3.17
2017-11-13T10:06:37.787Z,2.60
2017-11-13T10:09:06.983Z,4.77
2017-11-13T10:11:35.400Z,5.47
2017-11-13T10:14:04.290Z,2.90
2017-11-13T10:16:33.357Z,3.53
2017-11-13T10:19:01.710Z,2.50
2017-11-13T10:21:30.091Z,5.20
2017-11-13T10:23:58.530Z,2.60
2017-11-13T10:26:26.933Z,2.67
2017-11-13T10:28:55.327Z,3.67
2017-11-13T10:31:23.806Z,3.70
2017-11-13T10:33:54.389Z,3.40
2017-11-13T10:36:22.737Z,2.87
2017-11-13T10:38:51.366Z,2.70
2017-11-13T10:41:19.752Z,2.33
2017-11-13T10:43:48.806Z,4.43
2017-11-13T10:46:18.036Z,2.60
2017-11-13T10:48:46.405Z,4.23
2017-11-13T10:51:15.759Z,3.50
2017-11-13T10:53:44.118Z,2.90
2017-11-13T10:56:12.469Z,2.40
2017-11-13T10:58:41.588Z,2.53
2017-11-13T11:01:10.016Z,2.70
2017-11-13T11:03:38.321Z,2.23
2017-11-13T11:06:06.668Z,3.40
2017-11-13T11:08:35.957Z,3.10
2017-11-13T11:11:04.572Z,2.93
2017-11-13T11:16:46.670Z,3.17
2017-11-13T11:19:25.830Z,2.30
2017-11-13T11:25:03.605Z,3.20
2017-11-13T11:27:31.952Z,3.60
2017-11-13T11:30:05.999Z,3.47
2017-11-13T11:32:40.025Z,3.80
2017-11-13T11:38:13.747Z,4.60
2017-11-13T11:40:43.993Z,2.27
2017-11-13T11:43:12.305Z,2.50
2017-11-13T11:48:55.509Z,2.60
2017-11-13T11:51:23.793Z,3.13
2017-11-13T11:53:52.759Z,2.50
2017-11-13T11:56:21.116Z,3.20
2017-11-13T11:58:50.348Z,4.17
2017-11-13T12:01:18.712Z,3.50
2017-11-13T12:03:47.225Z,2.57
2017-11-13T12:06:15.522Z,2.17
2017-11-13T12:08:43.821Z,2.47
2017-11-13T12:11:13.105Z,3.40
2017-11-13T12:13:41.409Z,2.70
2017-11-13T12:16:10.858Z,2.70
2017-11-13T12:18:39.189Z,3.87
2017-11-13T12:21:07.529Z,2.70
2017-11-13T12:23:35.874Z,3.10
2017-11-13T12:26:04.151Z,2.93
2017-11-13T12:28:32.460Z,3.63
2017-11-13T12:31:00.798Z,3.00
2017-11-13T12:33:29.233Z,2.40
2017-11-13T12:35:57.694Z,2.90
2017-11-13T12:38:26.979Z,2.40
2017-11-13T12:40:55.463Z,2.00
2017-11-13T12:43:23.758Z,3.43
2017-11-13T12:45:52.808Z,2.50
2017-11-13T12:48:21.272Z,3.40
2017-11-13T12:50:49.591Z,2.10
2017-11-13T12:53:17.925Z,3.00
2017-11-13T12:55:46.213Z,2.77
2017-11-13T12:58:14.554Z,2.70
2017-11-13T13:00:43.570Z,2.47
2017-11-13T13:03:11.855Z,2.83
2017-11-13T13:05:40.209Z,2.47
2017-11-13T13:08:09.261Z,2.13
2017-11-13T13:10:37.639Z,4.10
2017-11-13T13:13:06.139Z,2.57
2017-11-13T13:15:35.433Z,2.13
2017-11-13T13:18:03.907Z,2.50
2017-11-13T13:20:32.673Z,2.63
2017-11-13T13:23:01.058Z,2.70
2017-11-13T13:25:29.337Z,2.30
2017-11-13T13:27:57.890Z,2.47
2017-11-13T13:30:26.204Z,1.80
2017-11-13T13:32:54.483Z,1.80
2017-11-13T13:35:22.876Z,2.73
2017-11-13T13:37:51.212Z,2.27
2017-11-13T13:40:19.650Z,3.00
2017-11-13T13:42:47.941Z,3.00
2017-11-13T13:45:16.238Z,3.20
2017-11-13T13:47:44.634Z,1.57
2017-11-13T13:50:12.933Z,2.03
2017-11-13T13:52:42.434Z,3.70
2017-11-13T13:55:10.760Z,3.10
2017-11-13T13:57:39.050Z,3.53
2017-11-13T14:00:07.324Z,2.53
2017-11-13T14:02:35.846Z,2.10
2017-11-13T14:05:04.191Z,3.10
2017-11-13T14:07:33.301Z,2.80
2017-11-13T14:10:03.168Z,3.80
2017-11-13T14:12:32.258Z,3.37
2017-11-13T14:15:01.313Z,3.07
2017-11-13T14:17:30.523Z,2.20
2017-11-13T14:20:09.208Z,5.00
2017-11-13T14:22:39.543Z,3.10
2017-11-13T14:25:13.309Z,2.03
2017-11-13T14:27:42.794Z,2.93
2017-11-13T14:30:12.121Z,5.73
2017-11-13T14:32:42.451Z,3.33
2017-11-13T14:35:17.819Z,2.73
2017-11-13T14:37:47.519Z,2.93
2017-11-13T14:40:20.804Z,2.50
2017-11-13T14:42:51.097Z,2.77
2017-11-13T14:45:23.897Z,2.80
2017-11-13T14:47:52.538Z,3.30
2017-11-13T14:50:21.336Z,4.50
2017-11-13T14:52:50.864Z,2.13
2017-11-13T14:55:24.433Z,1.90
2017-11-13T14:57:52.802Z,3.13
2017-11-13T15:00:23.013Z,1.80
2017-11-13T15:02:56.674Z,2.40
2017-11-13T15:05:26.817Z,2.53
2017-11-13T15:07:56.577Z,3.30
2017-11-13T15:10:25.603Z,2.33
2017-11-13T15:12:54.873Z,3.20
2017-11-13T15:15:27.394Z,4.27
2017-11-13T15:17:55.714Z,2.60
2017-11-13T15:20:25.253Z,3.30
2017-11-13T15:22:54.229Z,3.10
2017-11-13T15:25:26.595Z,2.40
2017-11-13T15:27:55.802Z,2.90
2017-11-13T15:30:28.463Z,2.83
2017-11-13T15:33:01.827Z,3.30
2017-11-13T15:35:34.470Z,2.27
2017-11-13T15:38:07.800Z,3.20
2017-11-13T15:40:40.947Z,3.00
2017-11-13T15:43:09.497Z,2.40
2017-11-13T15:45:37.965Z,3.23
2017-11-13T15:48:07.122Z,3.43
2017-11-13T15:50:40.094Z,2.80
2017-11-13T15:53:08.430Z,3.20
2017-11-13T15:55:36.823Z,3.00
2017-11-13T15:58:05.091Z,2.60
2017-11-13T16:00:33.516Z,3.40
2017-11-13T16:03:01.803Z,2.97
2017-11-13T16:05:30.106Z,3.40
2017-11-13T16:07:58.424Z,2.63
2017-11-13T16:10:27.563Z,2.57
2017-11-13T16:12:55.854Z,2.83
2017-11-13T16:15:24.135Z,3.13
2017-11-13T16:17:52.454Z,2.37
2017-11-13T16:20:22.290Z,2.33
2017-11-13T16:22:50.573Z,2.43
2017-11-13T16:25:18.925Z,2.75
2017-11-13T16:27:47.955Z,2.80
2017-11-13T16:30:16.480Z,3.20
2017-11-13T16:32:44.752Z,2.63
2017-11-13T16:35:13.023Z,2.30
2017-11-13T16:37:41.275Z,3.90
2017-11-13T16:40:09.587Z,2.97
2017-11-13T16:42:37.874Z,4.07
2017-11-13T16:45:07.168Z,1.83
2017-11-13T16:47:36.168Z,2.70
2017-11-13T16:50:05.267Z,4.07
2017-11-13T16:52:34.273Z,2.17
2017-11-13T16:55:02.554Z,2.20
2017-11-13T16:57:31.003Z,2.77
2017-11-13T16:59:59.296Z,3.90
2017-11-13T17:02:28.328Z,2.97
2017-11-13T17:04:56.593Z,4.63
2017-11-13T17:07:25.610Z,3.03
2017-11-13T17:09:53.898Z,3.33
2017-11-13T17:12:22.196Z,2.80
2017-11-13T17:14:50.488Z,5.57
2017-11-13T17:17:19.534Z,2.97
2017-11-13T17:19:48.773Z,2.67
2017-11-13T17:22:17.920Z,3.17
2017-11-13T17:24:46.168Z,2.80
2017-11-13T17:27:14.411Z,2.43
2017-11-13T17:29:44.314Z,4.00
2017-11-13T17:32:12.633Z,3.13
2017-11-13T17:34:40.893Z,3.30
2017-11-13T17:37:09.942Z,3.37
2017-11-13T17:39:38.390Z,3.83
2017-11-13T17:42:06.665Z,4.07
2017-11-13T17:44:34.959Z,3.87
2017-11-13T17:47:03.219Z,2.77
2017-11-13T17:49:31.458Z,2.90
2017-11-13T17:52:01.883Z,3.03
2017-11-13T17:54:30.113Z,3.40
2017-11-13T17:56:58.362Z,3.67
2017-11-13T17:59:27.415Z,2.83
2017-11-13T18:01:55.689Z,3.40
2017-11-13T18:04:24.005Z,2.90
2017-11-13T18:06:52.369Z,3.30
2017-11-13T18:09:21.405Z,2.90
2017-11-13T18:11:49.856Z,2.40
2017-11-13T18:14:18.895Z,2.97
2017-11-13T18:16:47.143Z,4.20
2017-11-13T18:19:15.452Z,3.60
2017-11-13T18:21:43.859Z,4.90
2017-11-13T18:24:14.104Z,3.73
2017-11-13T18:26:42.598Z,3.30
2017-11-13T18:29:11.004Z,3.33
2017-11-13T18:31:39.358Z,3.50
2017-11-13T18:34:09.454Z,3.57
2017-11-13T18:36:37.821Z,2.90
2017-11-13T18:39:06.150Z,3.00
2017-11-13T18:41:35.502Z,3.20
2017-11-13T18:44:03.853Z,5.30
2017-11-13T18:46:32.842Z,2.90
2017-11-13T18:49:01.554Z,3.00
2017-11-13T18:51:30.261Z,3.20
2017-11-13T18:53:58.548Z,3.67
2017-11-13T18:56:26.846Z,4.10
2017-11-13T18:58:55.211Z,3.70
2017-11-13T19:01:23.492Z,3.30
2017-11-13T19:03:51.815Z,3.50
2017-11-13T19:06:20.084Z,3.63
2017-11-13T19:08:49.264Z,3.13
2017-11-13T19:11:17.697Z,3.57
2017-11-13T19:13:45.982Z,3.80
2017-11-13T19:16:15.117Z,3.67
2017-11-13T19:18:43.410Z,3.33
2017-11-13T19:21:11.698Z,3.67
2017-11-13T19:23:39.980Z,4.23
2017-11-13T19:26:09.184Z,3.37
2017-11-13T19:28:37.444Z,4.50
2017-11-13T19:31:07.359Z,4.07
2017-11-13T19:33:35.598Z,4.30
2017-11-13T19:36:03.882Z,4.10
2017-11-13T19:38:32.230Z,4.10
2017-11-13T19:41:00.462Z,5.33
2017-11-13T19:43:28.733Z,6.27
2017-11-13T19:45:57.029Z,4.00
2017-11-13T19:48:25.296Z,4.00
2017-11-13T19:50:53.538Z,4.70
2017-11-13T19:53:22.316Z,4.33
2017-11-13T19:55:50.630Z,4.40
2017-11-13T19:58:18.874Z,3.97
2017-11-13T20:00:47.288Z,3.77
2017-11-13T20:03:15.623Z,4.50
2017-11-13T20:05:43.998Z,4.00
2017-11-13T20:08:12.545Z,4.97
2017-11-13T20:10:41.228Z,3.27
2017-11-13T20:13:09.916Z,4.20
2017-11-13T20:15:39.833Z,3.57
2017-11-13T20:18:08.514Z,4.13
2017-11-13T20:20:37.201Z,3.67
2017-11-13T20:23:05.899Z,4.53
2017-11-13T20:25:34.569Z,5.97
2017-11-13T20:28:03.256Z,4.67
2017-11-13T20:30:31.666Z,4.30
2017-11-13T20:33:00.832Z,4.67
2017-11-13T20:35:29.196Z,4.57
2017-11-13T20:37:58.349Z,6.33
2017-11-13T20:40:27.244Z,12.57
2017-11-13T20:42:56.490Z,6.37
2017-11-13T20:45:24.838Z,4.23
2017-11-13T20:47:53.102Z,5.40
2017-11-13T20:50:21.414Z,4.10
2017-11-13T20:52:49.678Z,5.07
2017-11-13T20:55:17.964Z,4.63
2017-11-13T20:57:47.264Z,4.43
2017-11-13T21:00:15.567Z,4.70
2017-11-13T21:02:43.907Z,4.50
2017-11-13T21:05:12.213Z,4.40
2017-11-13T21:07:40.479Z,4.97
2017-11-13T21:10:08.870Z,4.70
2017-11-13T21:12:37.896Z,4.40
2017-11-13T21:15:09.109Z,4.27
2017-11-13T21:17:37.354Z,4.80
2017-11-13T21:20:05.671Z,4.67
2017-11-13T21:22:33.959Z,4.97
2017-11-13T21:25:02.249Z,4.43
2017-11-13T21:27:30.670Z,4.17
2017-11-13T21:30:00.747Z,5.50
2017-11-13T21:32:29.880Z,6.00
2017-11-13T21:34:58.338Z,4.93
2017-11-13T21:37:26.642Z,4.80
2017-11-13T21:39:55.623Z,5.40
2017-11-13T21:42:23.888Z,5.17
2017-11-13T21:44:52.176Z,4.70
2017-11-13T21:47:21.246Z,5.20
2017-11-13T21:49:51.419Z,5.37
2017-11-13T21:52:20.584Z,4.67
2017-11-13T21:54:53.374Z,5.50
2017-11-13T21:57:21.774Z,5.73
2017-11-13T21:59:51.197Z,5.97
2017-11-13T22:02:19.672Z,6.30
2017-11-13T22:04:47.962Z,5.10
2017-11-13T22:07:16.259Z,5.40
2017-11-13T22:09:46.006Z,5.77
2017-11-13T22:12:18.620Z,6.43
2017-11-13T22:14:47.631Z,4.70
2017-11-13T22:17:17.592Z,4.97
2017-11-13T22:19:46.490Z,5.30
2017-11-13T22:22:17.830Z,5.17
2017-11-13T22:24:51.938Z,4.83
2017-11-13T22:27:26.580Z,4.47
2017-11-13T22:29:59.396Z,5.30
2017-11-13T22:32:33.277Z,5.37
2017-11-13T22:35:06.022Z,5.30
2017-11-13T22:37:37.430Z,4.77
2017-11-13T22:40:06.848Z,5.27
2017-11-13T22:42:35.296Z,4.93
2017-11-13T22:45:04.572Z,5.10
2017-11-13T22:47:35.324Z,5.20
2017-11-13T22:52:52.757Z,6.07
2017-11-13T22:55:32.551Z,5.50
2017-11-13T22:58:06.608Z,5.73
2017-11-13T23:03:17.130Z,4.50
2017-11-13T23:05:47.191Z,5.30
2017-11-13T23:08:21.719Z,6.07
2017-11-13T23:10:52.151Z,4.67
2017-11-13T23:13:22.623Z,5.83
2017-11-13T23:15:52.434Z,5.17
2017-11-13T23:18:21.507Z,5.27
2017-11-13T23:20:50.441Z,5.63
2017-11-13T23:23:22.884Z,5.53
2017-11-13T23:25:51.362Z,4.80
2017-11-13T23:28:27.075Z,4.27
2017-11-13T23:30:55.361Z,4.27
2017-11-13T23:33:23.783Z,5.27
2017-11-13T23:35:52.241Z,5.13
2017-11-13T23:38:21.440Z,4.67
2017-11-13T23:40:49.803Z,5.40
2017-11-13T23:43:18.962Z,6.67
2017-11-13T23:45:48.207Z,4.50
2017-11-13T23:48:16.575Z,5.50
2017-11-13T23:50:44.870Z,5.00
2017-11-13T23:53:13.159Z,5.30
2017-11-13T23:55:41.395Z,5.03
2017-11-13T23:58:09.817Z,5.30
